createdAt,value
2019-06-15T00:02:22.394Z,67.43
2019-06-15T00:04:57.291Z,67.41
2019-06-15T00:42:56.959Z,69.35
2019-06-15T00:49:02.753Z,69.93
2019-06-15T01:00:30.643Z,70.96
2019-06-15T01:03:32.710Z,71.49
2019-06-15T01:06:09.386Z,71.70
2019-06-15T01:08:44.214Z,71.66
2019-06-15T01:11:15.287Z,71.82
2019-06-15T01:16:30.503Z,72.13
2019-06-15T01:19:01.911Z,72.22
2019-06-15T01:21:35.158Z,71.64
2019-06-15T01:24:07.496Z,71.24
2019-06-15T01:26:38.345Z,71.05
2019-06-15T01:29:10.337Z,71.04
2019-06-15T01:31:39.637Z,70.80
2019-06-15T01:34:11.827Z,70.61
2019-06-15T01:36:41.492Z,70.79
2019-06-15T01:39:12.955Z,70.85
2019-06-15T01:41:43.401Z,70.80
2019-06-15T01:44:12.861Z,69.97
2019-06-15T01:46:42.097Z,69.45
2019-06-15T01:49:11.540Z,69.61
2019-06-15T01:51:42.727Z,70.44
2019-06-15T01:57:08.898Z,69.86
2019-06-15T02:03:27.921Z,69.75
2019-06-15T02:09:08.876Z,70.49
2019-06-15T02:11:41.407Z,70.74
2019-06-15T02:14:10.743Z,70.74
2019-06-15T02:26:38.085Z,69.85
2019-06-15T02:29:32.430Z,69.42
2019-06-15T02:32:08.456Z,69.36
2019-06-15T02:34:46.928Z,69.20
2019-06-15T02:37:15.853Z,69.21
2019-06-15T02:39:45.911Z,69.19
2019-06-15T02:42:17.397Z,69.32
2019-06-15T02:44:51.268Z,69.57
2019-06-15T02:47:20.504Z,69.88
2019-06-15T02:49:49.994Z,69.67
2019-06-15T02:52:20.505Z,69.68
2019-06-15T02:54:49.742Z,69.98
2019-06-15T02:57:19.001Z,70.31
2019-06-15T02:59:49.068Z,69.97
2019-06-15T03:02:19.130Z,69.86
2019-06-15T03:05:05.312Z,70.35
2019-06-15T03:11:08.954Z,70.71
2019-06-15T03:13:40.663Z,71.21
2019-06-15T03:16:12.152Z,71.14
2019-06-15T03:18:48.546Z,71.48
2019-06-15T03:21:17.958Z,71.96
2019-06-15T03:23:49.985Z,72.45
2019-06-15T03:26:25.887Z,72.98
2019-06-15T03:28:56.477Z,73.01
2019-06-15T03:31:26.185Z,73.33
2019-06-15T03:33:56.864Z,73.36
2019-06-15T03:36:29.320Z,71.50
2019-06-15T03:39:00.105Z,71.00
2019-06-15T03:41:29.537Z,70.44
2019-06-15T03:43:58.848Z,70.19
2019-06-15T03:46:28.240Z,70.42
2019-06-15T03:48:57.651Z,70.41
2019-06-15T03:51:27.027Z,70.22
2019-06-15T03:54:03.320Z,70.46
2019-06-15T03:56:33.974Z,70.61
2019-06-15T03:59:06.888Z,70.71
2019-06-15T04:01:52.315Z,70.70
2019-06-15T04:04:23.505Z,70.80
2019-06-15T04:06:55.050Z,71.10
2019-06-15T04:09:25.648Z,71.22
2019-06-15T04:11:54.979Z,71.15
2019-06-15T04:14:24.317Z,70.89
2019-06-15T04:16:53.810Z,70.62
2019-06-15T04:19:25.667Z,70.34
2019-06-15T04:22:07.781Z,70.38
2019-06-15T04:24:34.101Z,70.43
2019-06-15T04:27:05.937Z,70.56
2019-06-15T04:29:38.569Z,70.39
2019-06-15T04:32:09.101Z,70.53
2019-06-15T04:34:39.616Z,70.54
2019-06-15T04:37:09.605Z,70.39
2019-06-15T04:39:39.036Z,70.46
2019-06-15T04:42:09.542Z,70.35
2019-06-15T04:44:38.969Z,70.53
2019-06-15T04:47:13.096Z,70.87
2019-06-15T04:49:50.845Z,70.67
2019-06-15T04:52:22.329Z,70.89
2019-06-15T04:54:54.387Z,70.92
2019-06-15T04:57:23.731Z,70.90
2019-06-15T05:00:03.139Z,70.74
2019-06-15T05:02:33.807Z,70.68
2019-06-15T05:05:17.138Z,70.37
2019-06-15T05:07:47.383Z,70.49
2019-06-15T05:10:17.398Z,71.15
2019-06-15T05:12:46.643Z,70.91
2019-06-15T05:15:15.899Z,70.98
2019-06-15T05:17:46.356Z,70.82
2019-06-15T05:20:15.668Z,70.89
2019-06-15T05:22:44.947Z,70.82
2019-06-15T05:25:15.865Z,70.95
2019-06-15T05:27:45.150Z,71.08
2019-06-15T05:30:15.716Z,71.04
2019-06-15T05:32:46.631Z,71.02
2019-06-15T05:35:16.108Z,70.92
2019-06-15T05:37:48.607Z,70.86
2019-06-15T05:56:25.739Z,71.72
2019-06-15T05:58:55.169Z,71.74
2019-06-15T06:01:26.028Z,71.96
2019-06-15T06:12:48.000Z,72.08
2019-06-15T06:13:13.237Z,72.40
2019-06-15T06:15:56.115Z,72.44
2019-06-15T06:27:40.081Z,73.39
2019-06-15T06:30:14.513Z,73.52
2019-06-15T06:32:56.885Z,73.66
2019-06-15T06:35:27.967Z,73.92
2019-06-15T06:37:58.075Z,74.92
2019-06-15T06:40:27.976Z,76.38
2019-06-15T06:42:58.000Z,78.19
2019-06-15T06:45:27.288Z,80.94
2019-06-15T06:52:07.428Z,82.88
2019-06-15T07:13:18.737Z,80.67
2019-06-15T07:15:49.671Z,79.48
2019-06-15T07:18:32.460Z,79.02
2019-06-15T07:20:57.130Z,78.44
2019-06-15T07:23:31.087Z,78.17
2019-06-15T07:25:59.779Z,77.61
2019-06-15T07:28:29.101Z,77.17
2019-06-15T07:31:00.368Z,76.35
2019-06-15T07:33:31.413Z,75.13
2019-06-15T07:36:02.354Z,75.03
2019-06-15T07:38:34.086Z,75.42
2019-06-15T07:41:05.165Z,74.41
2019-06-15T07:43:36.351Z,73.65
2019-06-15T07:46:05.656Z,72.59
2019-06-15T07:48:34.890Z,71.35
2019-06-15T07:51:05.505Z,70.69
2019-06-15T07:53:35.536Z,69.98
2019-06-15T07:56:07.654Z,69.83
2019-06-15T07:58:36.904Z,69.69
2019-06-15T08:01:07.700Z,67.65
2019-06-15T08:03:43.241Z,66.09
2019-06-15T08:06:11.166Z,65.79
2019-06-15T08:08:40.445Z,65.00
2019-06-15T08:11:09.645Z,63.50
2019-06-15T08:13:44.147Z,62.95
2019-06-15T08:16:13.383Z,63.04
2019-06-15T08:18:44.152Z,63.21
2019-06-15T08:21:15.946Z,63.22
2019-06-15T08:23:48.639Z,62.49
2019-06-15T08:26:19.462Z,62.12
2019-06-15T08:28:56.127Z,61.41
2019-06-15T08:31:24.529Z,61.00
2019-06-15T08:33:54.142Z,60.51
2019-06-15T08:36:26.700Z,59.18
2019-06-15T08:38:56.592Z,58.79
2019-06-15T08:41:28.582Z,55.67
2019-06-15T08:43:57.707Z,56.05
2019-06-15T08:46:27.236Z,55.98
2019-06-15T08:48:56.454Z,55.58
2019-06-15T08:51:25.792Z,55.00
2019-06-15T08:53:55.062Z,54.90
2019-06-15T08:56:24.294Z,54.64
2019-06-15T08:58:55.781Z,54.69
2019-06-15T09:01:25.916Z,54.03
2019-06-15T09:03:56.630Z,53.37
2019-06-15T09:06:28.953Z,52.71
2019-06-15T09:08:58.274Z,53.50
2019-06-15T09:11:27.511Z,53.44
2019-06-15T09:13:57.326Z,53.08
2019-06-15T09:16:26.629Z,52.39
2019-06-15T09:18:57.561Z,51.75
2019-06-15T09:21:28.203Z,51.31
2019-06-15T09:23:59.706Z,51.21
2019-06-15T09:26:28.913Z,51.15
2019-06-15T09:29:10.315Z,50.89
2019-06-15T09:31:30.421Z,50.60
2019-06-15T09:33:59.882Z,50.12
2019-06-15T09:36:29.094Z,50.59
2019-06-15T09:39:00.105Z,50.04
2019-06-15T09:41:30.474Z,49.40
2019-06-15T09:44:02.161Z,49.24
2019-06-15T09:46:31.346Z,49.00
2019-06-15T09:49:01.873Z,48.74
2019-06-15T09:51:34.391Z,48.99
2019-06-15T09:54:05.044Z,48.95
2019-06-15T09:56:35.359Z,50.45
2019-06-15T09:59:04.682Z,51.16
2019-06-15T10:01:37.422Z,51.91
2019-06-15T10:04:09.851Z,52.19
2019-06-15T10:06:39.014Z,52.01
2019-06-15T10:09:08.315Z,51.21
2019-06-15T10:11:48.723Z,50.39
2019-06-15T10:14:22.640Z,49.83
2019-06-15T10:16:54.402Z,49.01
2019-06-15T10:19:30.825Z,48.50
2019-06-15T10:22:01.591Z,48.01
2019-06-15T10:24:31.858Z,47.74
2019-06-15T10:27:01.044Z,47.87
2019-06-15T10:29:41.724Z,48.27
2019-06-15T10:32:01.286Z,48.40
2019-06-15T10:34:32.236Z,47.66
2019-06-15T10:37:01.752Z,47.40
2019-06-15T10:39:32.496Z,46.90
2019-06-15T10:42:01.901Z,46.75
2019-06-15T10:44:31.585Z,46.54
2019-06-15T10:47:00.997Z,46.42
2019-06-15T10:49:30.317Z,46.45
2019-06-15T10:52:00.143Z,46.16
2019-06-15T10:54:30.642Z,46.73
2019-06-15T10:57:00.022Z,47.38
2019-06-15T10:59:29.308Z,47.86
2019-06-15T11:01:58.729Z,48.50
2019-06-15T11:04:28.087Z,48.23
2019-06-15T11:06:57.841Z,48.20
2019-06-15T11:09:27.372Z,47.97
2019-06-15T11:11:57.203Z,48.17
2019-06-15T11:14:26.676Z,48.04
2019-06-15T11:16:55.905Z,47.58
2019-06-15T11:19:25.143Z,47.31
2019-06-15T11:21:54.476Z,46.96
2019-06-15T11:24:45.393Z,46.47
2019-06-15T11:27:15.236Z,45.87
2019-06-15T11:29:44.434Z,45.49
2019-06-15T11:32:29.799Z,44.45
2019-06-15T11:35:13.856Z,44.17
2019-06-15T11:38:00.880Z,44.12
2019-06-15T11:40:30.109Z,43.23
2019-06-15T11:43:00.711Z,42.99
2019-06-15T11:45:30.816Z,42.19
2019-06-15T11:48:00.012Z,42.34
2019-06-15T11:50:29.319Z,42.23
2019-06-15T11:52:58.518Z,41.61
2019-06-15T11:55:39.010Z,41.77
2019-06-15T11:58:02.616Z,41.81
2019-06-15T12:00:53.751Z,41.34
2019-06-15T12:03:44.005Z,41.03
2019-06-15T12:09:43.051Z,40.67
2019-06-15T12:15:20.584Z,39.93
2019-06-15T12:17:52.036Z,39.54
2019-06-15T12:20:31.428Z,40.03
2019-06-15T12:23:20.801Z,39.37
2019-06-15T12:26:00.723Z,39.55
2019-06-15T12:28:41.424Z,39.40
2019-06-15T12:31:18.337Z,39.48
2019-06-15T12:34:03.296Z,39.58
2019-06-15T12:36:39.605Z,39.42
2019-06-15T12:39:28.778Z,39.62
2019-06-15T12:41:58.127Z,39.31
2019-06-15T12:44:39.155Z,39.49
2019-06-15T12:47:25.386Z,38.97
2019-06-15T12:49:56.043Z,39.07
2019-06-15T12:52:25.465Z,38.92
2019-06-15T12:55:04.993Z,38.63
2019-06-15T12:57:52.788Z,38.31
2019-06-15T13:00:41.263Z,38.22
2019-06-15T13:03:05.207Z,37.73
2019-06-15T13:05:34.602Z,38.22
2019-06-15T13:08:04.025Z,38.41
2019-06-15T13:10:33.399Z,38.36
2019-06-15T13:13:02.801Z,38.40
2019-06-15T13:15:33.660Z,38.41
2019-06-15T13:18:03.370Z,37.87
2019-06-15T13:20:32.732Z,37.87
2019-06-15T13:23:02.159Z,38.15
2019-06-15T13:25:31.498Z,38.42
2019-06-15T13:28:00.837Z,38.36
2019-06-15T13:30:30.365Z,38.42
2019-06-15T13:32:59.856Z,38.37
2019-06-15T13:35:29.358Z,37.85
2019-06-15T13:37:59.073Z,37.87
2019-06-15T13:40:28.370Z,37.94
2019-06-15T13:42:57.603Z,37.64
2019-06-15T13:45:28.293Z,37.53
2019-06-15T13:48:00.339Z,37.20
2019-06-15T13:50:29.751Z,37.90
2019-06-15T13:53:05.462Z,37.97
2019-06-15T13:55:36.127Z,37.22
2019-06-15T14:01:34.052Z,37.99
2019-06-15T14:03:56.486Z,36.71
2019-06-15T14:06:30.051Z,36.20
2019-06-15T14:09:05.228Z,36.27
2019-06-15T14:11:37.075Z,36.75
2019-06-15T14:14:08.449Z,37.92
2019-06-15T14:16:39.549Z,37.06
2019-06-15T14:19:09.191Z,36.88
2019-06-15T14:21:42.897Z,36.54
2019-06-15T14:24:13.597Z,36.37
2019-06-15T14:26:42.811Z,37.18
2019-06-15T14:29:17.350Z,37.17
2019-06-15T14:31:50.556Z,36.96
2019-06-15T14:34:21.712Z,36.17
2019-06-15T14:36:51.748Z,37.02
2019-06-15T14:39:23.145Z,37.31
2019-06-15T14:41:56.649Z,37.00
2019-06-15T14:44:26.777Z,37.34
2019-06-15T14:46:56.087Z,36.78
2019-06-15T14:49:27.893Z,36.56
2019-06-15T14:51:57.487Z,37.33
2019-06-15T14:54:28.599Z,37.46
2019-06-15T14:56:59.873Z,36.58
2019-06-15T14:59:30.574Z,36.04
2019-06-15T15:02:10.100Z,36.60
2019-06-15T15:04:32.862Z,35.65
2019-06-15T15:07:03.536Z,35.64
2019-06-15T15:09:35.203Z,37.10
2019-06-15T15:12:06.878Z,37.62
2019-06-15T15:14:36.651Z,38.77
2019-06-15T15:17:07.988Z,38.36
2019-06-15T15:19:40.783Z,37.73
2019-06-15T15:22:20.359Z,38.95
2019-06-15T15:24:56.380Z,39.72
2019-06-15T15:27:29.856Z,39.88
2019-06-15T15:29:59.834Z,38.78
2019-06-15T15:32:31.824Z,40.21
2019-06-15T15:35:03.088Z,40.67
2019-06-15T15:37:37.360Z,39.51
2019-06-15T15:40:16.609Z,38.44
2019-06-15T15:42:47.482Z,39.09
2019-06-15T15:45:18.893Z,39.90
2019-06-15T15:47:49.082Z,38.44
2019-06-15T15:50:18.296Z,40.87
2019-06-15T15:52:53.377Z,41.60
2019-06-15T15:55:26.346Z,42.57
2019-06-15T15:57:57.298Z,41.65
2019-06-15T16:00:36.217Z,42.02
2019-06-15T16:03:08.132Z,40.86
2019-06-15T16:05:38.693Z,41.61
2019-06-15T16:08:09.346Z,40.35
2019-06-15T16:10:42.419Z,38.99
2019-06-15T16:13:13.658Z,39.40
2019-06-15T16:15:46.129Z,39.95
2019-06-15T16:18:17.417Z,41.04
2019-06-15T16:20:47.499Z,40.58
2019-06-15T16:23:19.512Z,41.10
2019-06-15T16:25:52.372Z,41.49
2019-06-15T16:28:26.397Z,42.09
2019-06-15T16:31:12.128Z,42.21
2019-06-15T16:33:37.288Z,41.60
2019-06-15T16:36:08.568Z,41.90
2019-06-15T16:38:39.332Z,42.11
2019-06-15T16:41:09.020Z,42.21
2019-06-15T16:43:40.579Z,42.46
2019-06-15T16:46:12.132Z,42.71
2019-06-15T16:48:42.858Z,42.96
2019-06-15T16:51:13.845Z,43.62
2019-06-15T16:53:47.358Z,44.12
2019-06-15T16:56:18.365Z,43.67
2019-06-15T16:58:50.104Z,43.91
2019-06-15T17:01:22.049Z,43.60
2019-06-15T17:03:56.937Z,43.02
2019-06-15T17:06:28.827Z,43.31
2019-06-15T17:08:59.487Z,44.20
2019-06-15T17:11:30.413Z,44.24
2019-06-15T17:14:12.541Z,45.07
2019-06-15T17:16:42.801Z,45.71
2019-06-15T17:19:18.763Z,45.99
2019-06-15T17:21:50.215Z,45.81
2019-06-15T17:24:23.241Z,46.09
2019-06-15T17:26:57.330Z,46.37
2019-06-15T17:29:29.008Z,47.24
2019-06-15T17:32:00.776Z,47.18
2019-06-15T17:34:30.539Z,48.07
2019-06-15T17:39:57.302Z,47.71
2019-06-15T17:42:30.074Z,48.02
2019-06-15T17:45:01.762Z,48.74
2019-06-15T17:47:36.265Z,47.43
2019-06-15T17:50:08.927Z,48.97
2019-06-15T17:52:40.952Z,49.00
2019-06-15T17:55:12.752Z,48.98
2019-06-15T17:57:46.589Z,49.66
2019-06-15T18:00:29.533Z,49.48
2019-06-15T18:03:02.093Z,49.92
2019-06-15T18:05:37.020Z,49.87
2019-06-15T18:08:07.597Z,49.89
2019-06-15T18:10:39.733Z,48.90
2019-06-15T18:13:18.664Z,47.05
2019-06-15T18:15:50.445Z,47.95
2019-06-15T18:18:24.457Z,47.88
2019-06-15T18:20:56.713Z,48.93
2019-06-15T18:26:21.566Z,50.72
2019-06-15T18:28:52.251Z,51.76
2019-06-15T18:31:21.617Z,53.13
2019-06-15T18:34:06.539Z,54.06
2019-06-15T18:36:31.214Z,54.11
2019-06-15T18:39:01.616Z,53.80
2019-06-15T18:41:32.659Z,55.36
2019-06-15T18:44:02.449Z,55.81
2019-06-15T18:46:36.795Z,56.02
2019-06-15T18:49:07.666Z,56.29
2019-06-15T18:51:36.869Z,56.33
2019-06-15T18:54:15.843Z,56.31
2019-06-15T18:56:45.960Z,56.37
2019-06-15T18:59:17.022Z,56.72
2019-06-15T19:01:49.404Z,56.92
2019-06-15T19:04:27.032Z,56.74
2019-06-15T19:06:53.107Z,57.29
2019-06-15T19:09:23.448Z,58.26
2019-06-15T19:11:53.623Z,58.72
2019-06-15T19:14:22.849Z,59.59
2019-06-15T19:16:56.634Z,59.88
2019-06-15T19:19:29.900Z,60.35
2019-06-15T19:22:02.525Z,60.58
2019-06-15T19:24:36.698Z,60.74
2019-06-15T19:27:08.397Z,61.04
2019-06-15T19:29:40.925Z,61.54
2019-06-15T19:32:12.081Z,61.96
2019-06-15T19:34:48.764Z,62.23
2019-06-15T19:37:17.672Z,62.67
2019-06-15T19:39:46.967Z,62.87
2019-06-15T19:42:21.055Z,63.38
2019-06-15T19:47:46.978Z,64.15
2019-06-15T19:50:18.713Z,64.34
2019-06-15T19:52:50.808Z,64.38
2019-06-15T19:55:22.551Z,64.98
2019-06-15T19:57:53.263Z,65.88
2019-06-15T20:00:27.019Z,66.20
2019-06-15T20:02:57.258Z,66.72
2019-06-15T20:05:28.940Z,67.16
2019-06-15T20:07:58.345Z,67.47
2019-06-15T20:10:27.545Z,67.57
2019-06-15T20:12:56.799Z,67.77
2019-06-15T20:15:27.888Z,67.95
2019-06-15T20:17:57.239Z,67.87
2019-06-15T20:20:29.057Z,68.16
2019-06-15T20:23:00.327Z,68.47
2019-06-15T20:25:30.295Z,68.98
2019-06-15T20:28:01.635Z,68.89
2019-06-15T20:30:32.625Z,69.03
2019-06-15T20:33:02.945Z,69.41
2019-06-15T20:35:32.613Z,69.23
2019-06-15T20:38:02.880Z,69.81
2019-06-15T20:40:36.619Z,69.94
2019-06-15T20:43:07.819Z,69.94
2019-06-15T20:45:38.963Z,69.91
2019-06-15T20:48:13.306Z,70.02
2019-06-15T20:50:46.933Z,69.90
2019-06-15T20:53:17.994Z,69.15
2019-06-15T20:55:48.220Z,69.05
2019-06-15T20:58:26.378Z,69.01
2019-06-15T21:00:57.191Z,69.13
2019-06-15T21:03:28.375Z,69.05
2019-06-15T21:06:00.070Z,69.29
2019-06-15T21:08:31.683Z,69.39
2019-06-15T21:11:07.064Z,69.07
2019-06-15T21:13:37.495Z,68.83
2019-06-15T21:16:12.679Z,68.71
2019-06-15T21:21:33.314Z,68.66
2019-06-15T21:24:06.355Z,68.03
2019-06-15T21:26:39.749Z,68.07
2019-06-15T21:29:16.590Z,68.14
2019-06-15T21:31:46.727Z,67.98
2019-06-15T21:34:18.950Z,67.56
2019-06-15T21:36:53.750Z,67.74
2019-06-15T21:39:27.014Z,68.27
2019-06-15T21:41:59.187Z,68.57
2019-06-15T21:44:30.557Z,68.88
2019-06-15T21:47:02.212Z,69.05
2019-06-15T21:49:35.848Z,69.21
2019-06-15T21:52:07.243Z,69.34
2019-06-15T21:54:38.286Z,69.34
2019-06-15T21:57:09.422Z,69.39
2019-06-15T21:59:40.511Z,69.34
2019-06-15T22:02:09.695Z,69.46
2019-06-15T22:04:40.226Z,69.44
2019-06-15T22:07:11.739Z,69.53
2019-06-15T22:09:46.753Z,69.85
2019-06-15T22:12:19.524Z,70.30
2019-06-15T22:14:51.847Z,70.39
2019-06-15T22:17:21.479Z,70.50
2019-06-15T22:19:54.040Z,71.07
2019-06-15T22:22:27.156Z,71.19
2019-06-15T22:24:57.893Z,71.42
2019-06-15T22:27:29.694Z,71.31
2019-06-15T22:30:00.993Z,71.49
2019-06-15T22:32:31.741Z,71.65
2019-06-15T22:35:06.942Z,71.67
2019-06-15T22:37:36.229Z,71.74
2019-06-15T22:40:11.447Z,72.11
2019-06-15T22:42:43.337Z,72.14
2019-06-15T22:45:13.264Z,72.38
2019-06-15T22:47:46.618Z,72.64
2019-06-15T22:50:16.210Z,72.71
2019-06-15T22:52:47.285Z,72.77
2019-06-15T22:55:19.651Z,72.75
2019-06-15T22:57:53.387Z,72.64
2019-06-15T23:00:26.424Z,72.95
2019-06-15T23:02:57.074Z,72.96
2019-06-15T23:05:27.959Z,72.81
2019-06-15T23:08:00.736Z,72.98
2019-06-15T23:10:30.025Z,73.23
2019-06-15T23:13:06.308Z,73.39
2019-06-15T23:15:37.129Z,73.20
2019-06-15T23:18:07.934Z,73.23
2019-06-15T23:20:37.566Z,73.76
2019-06-15T23:23:11.163Z,74.01
2019-06-15T23:25:43.738Z,74.05
2019-06-15T23:28:16.694Z,74.08
2019-06-15T23:30:48.477Z,74.03
2019-06-15T23:33:26.399Z,74.00
2019-06-15T23:35:58.631Z,74.11
2019-06-15T23:38:29.828Z,74.15
2019-06-15T23:41:00.902Z,74.04
2019-06-15T23:43:31.743Z,74.09
2019-06-15T23:46:06.622Z,74.35
2019-06-15T23:48:36.561Z,74.53
2019-06-15T23:51:09.666Z,74.64
2019-06-15T23:53:40.506Z,74.64
2019-06-15T23:56:12.514Z,74.70
2019-06-15T23:58:46.335Z,74.68
